Time;durP1;ratioP1;P1;durP2;ratioP2;P2;SDS_P1;SDS_P2;PMS_P1;PMS_P2;Temp;Humidity;BMP_temperature;BMP_pressure;BME280_temperature;BME280_humidity;BME280_pressure;Samples;Min_cycle;Max_cycle;Signal;HPM_P1;HPM_P2
2022/11/26 00:01:41;;;;;;;6.07;4.50;;;7.40;99.90;;;;;;5024946;28;20500;-67
2022/11/26 00:04:07;;;;;;;10.27;6.07;;;7.20;99.90;;;;;;5031222;28;20702;-68
2022/11/26 00:06:41;;;;;;;8.57;5.07;;;7.20;99.90;;;;;;5030654;28;20181;-68
2022/11/26 00:09:14;;;;;;;7.03;5.72;;;7.10;99.90;;;;;;5022225;28;20663;-68
2022/11/26 00:11:40;;;;;;;6.13;5.13;;;7.00;99.90;;;;;;5032817;28;20186;-68
2022/11/26 00:14:15;;;;;;;10.20;5.23;;;6.80;99.90;;;;;;5028193;28;20237;-68
2022/11/26 00:16:42;;;;;;;7.50;4.60;;;6.90;99.90;;;;;;5035115;28;20553;-68
2022/11/26 00:19:08;;;;;;;9.52;5.03;;;7.00;99.90;;;;;;5039230;28;20328;-68
2022/11/26 00:21:36;;;;;;;10.07;5.03;;;7.00;99.90;;;;;;5033057;28;20178;-68
2022/11/26 00:24:02;;;;;;;11.52;6.47;;;7.00;99.90;;;;;;5027889;28;20207;-68
2022/11/26 00:26:28;;;;;;;6.55;4.55;;;6.90;99.90;;;;;;5031182;28;20186;-67
2022/11/26 00:29:01;;;;;;;7.00;5.07;;;7.30;99.90;;;;;;5030678;28;20197;-67
2022/11/26 00:31:28;;;;;;;11.75;5.38;;;7.40;99.90;;;;;;5025045;28;20503;-67
2022/11/26 00:33:53;;;;;;;9.68;4.70;;;7.30;99.90;;;;;;5027110;28;20268;-67
2022/11/26 00:36:26;;;;;;;5.80;4.23;;;7.30;99.90;;;;;;5030393;28;20698;-67
2022/11/26 00:39:04;;;;;;;7.65;4.47;;;7.60;99.90;;;;;;5030447;28;20206;-67
2022/11/26 00:41:34;;;;;;;7.20;4.82;;;7.40;99.90;;;;;;5030174;28;20555;-67
2022/11/26 00:44:00;;;;;;;6.97;5.18;;;7.70;99.90;;;;;;5029922;28;20294;-67
2022/11/26 00:46:25;;;;;;;4.70;4.30;;;7.70;99.90;;;;;;5029580;28;20270;-67
2022/11/26 00:48:51;;;;;;;8.50;4.57;;;7.50;99.90;;;;;;5030123;28;20474;-67
2022/11/26 00:51:35;;;;;;;7.40;5.90;;;7.60;99.90;;;;;;5026988;28;20289;-67
2022/11/26 00:54:02;;;;;;;13.23;4.97;;;7.40;99.90;;;;;;5047011;28;20549;-67
2022/11/26 00:56:29;;;;;;;8.80;5.38;;;7.50;99.90;;;;;;5044978;28;20651;-67
2022/11/26 00:58:54;;;;;;;7.30;5.30;;;7.50;99.90;;;;;;5028632;28;20213;-67
2022/11/26 01:01:26;;;;;;;8.93;4.33;;;7.60;99.90;;;;;;5028273;28;20186;-67
2022/11/26 01:03:52;;;;;;;6.20;4.13;;;7.50;99.90;;;;;;5029133;28;20207;-67
2022/11/26 01:06:21;;;;;;;7.90;4.68;;;7.60;99.90;;;;;;5043059;28;20186;-67
2022/11/26 01:08:47;;;;;;;8.40;4.35;;;7.80;99.90;;;;;;5030340;28;20702;-67
2022/11/26 01:11:16;;;;;;;9.23;4.90;;;7.80;99.90;;;;;;5025915;28;20225;-67
2022/11/26 01:13:44;;;;;;;7.65;5.50;;;7.60;99.90;;;;;;5026580;28;21024;-67
2022/11/26 01:16:15;;;;;;;8.23;4.80;;;7.70;99.90;;;;;;5043626;28;20224;-67
2022/11/26 01:18:41;;;;;;;8.25;4.65;;;8.20;99.90;;;;;;5031458;28;20750;-68
2022/11/26 01:21:09;;;;;;;9.13;4.93;;;8.20;99.90;;;;;;5026819;28;20214;-67
2022/11/26 01:23:35;;;;;;;6.55;4.55;;;8.10;99.90;;;;;;5030216;28;20214;-67
2022/11/26 01:26:01;;;;;;;7.47;4.53;;;7.80;99.90;;;;;;5031370;28;20197;-67
2022/11/26 01:28:27;;;;;;;6.23;3.83;;;7.80;99.90;;;;;;5035732;28;21000;-67
2022/11/26 01:30:52;;;;;;;8.73;4.70;;;8.10;99.90;;;;;;5027872;28;20211;-67
2022/11/26 01:33:18;;;;;;;5.33;3.80;;;8.00;99.90;;;;;;5042949;28;20264;-67
2022/11/26 01:35:44;;;;;;;9.57;4.23;;;7.90;99.90;;;;;;5027943;28;20195;-68
2022/11/26 01:38:14;;;;;;;5.40;4.03;;;8.40;99.90;;;;;;5028571;28;20273;-66
2022/11/26 01:40:45;;;;;;;7.30;3.80;;;8.20;99.90;;;;;;5027644;28;20182;-67
2022/11/26 01:43:19;;;;;;;6.47;3.90;;;8.20;99.90;;;;;;5023939;28;20203;-66
2022/11/26 01:45:45;;;;;;;9.75;4.75;;;8.30;99.90;;;;;;5026306;28;20190;-67
2022/11/26 01:48:27;;;;;;;6.53;3.90;;;8.20;99.90;;;;;;5026302;28;20183;-67
2022/11/26 01:50:52;;;;;;;4.88;3.30;;;8.60;99.90;;;;;;5040728;28;20270;-67
2022/11/26 01:53:29;;;;;;;3.83;3.00;;;8.50;99.90;;;;;;5025587;28;20285;-67
2022/11/26 01:56:13;;;;;;;6.15;3.08;;;8.20;99.90;;;;;;5032752;28;20185;-67
2022/11/26 01:58:44;;;;;;;5.43;2.80;;;8.20;99.90;;;;;;5023397;28;20316;-67
2022/11/26 02:01:10;;;;;;;5.93;4.03;;;8.20;99.90;;;;;;5029493;28;20182;-67
2022/11/26 02:03:59;;;;;;;7.43;3.40;;;8.30;99.90;;;;;;5029666;28;20202;-67
2022/11/26 02:06:32;;;;;;;5.60;3.28;;;8.20;99.90;;;;;;5020971;28;20510;-67
2022/11/26 02:09:01;;;;;;;6.43;3.22;;;8.20;99.90;;;;;;5027428;28;20282;-66
2022/11/26 02:11:27;;;;;;;6.45;3.92;;;8.30;99.90;;;;;;5028980;28;20823;-66
2022/11/26 02:14:00;;;;;;;5.10;3.20;;;8.00;99.90;;;;;;5026707;28;20210;-66
2022/11/26 02:17:03;;;;;;;4.13;3.50;;;8.20;99.90;;;;;;5027986;28;20217;-67
2022/11/26 02:19:49;;;;;;;8.25;3.45;;;8.20;99.90;;;;;;5031758;28;20209;-66
2022/11/26 02:22:36;;;;;;;6.32;3.30;;;8.40;99.90;;;;;;5028434;28;20182;-67
2022/11/26 02:25:28;;;;;;;6.82;3.20;;;8.20;99.90;;;;;;5023124;28;20190;-67
2022/11/26 02:28:11;;;;;;;4.75;2.83;;;8.20;99.90;;;;;;5027349;28;20187;-67
2022/11/26 02:30:43;;;;;;;5.10;2.83;;;8.50;99.90;;;;;;5025243;28;20252;-67
2022/11/26 02:33:22;;;;;;;5.05;2.90;;;8.20;99.90;;;;;;5019490;28;20207;-67
2022/11/26 02:35:57;;;;;;;6.45;3.03;;;8.30;99.90;;;;;;5027363;28;20186;-67
2022/11/26 02:38:25;;;;;;;9.65;4.40;;;8.20;99.90;;;;;;5031620;28;20182;-67
2022/11/26 02:40:51;;;;;;;6.28;3.10;;;8.20;99.90;;;;;;5031157;28;20175;-67
2022/11/26 02:43:18;;;;;;;4.60;2.70;;;8.40;99.90;;;;;;5047929;28;20206;-67
2022/11/26 02:45:52;;;;;;;2.53;2.33;;;8.30;99.90;;;;;;5032036;28;20212;-67
2022/11/26 02:48:24;;;;;;;4.88;3.10;;;8.30;99.90;;;;;;5029536;28;20550;-67
2022/11/26 02:50:54;;;;;;;3.65;2.95;;;8.10;99.90;;;;;;5031282;28;20178;-67
2022/11/26 02:53:22;;;;;;;4.93;3.10;;;8.40;99.90;;;;;;5037074;28;20194;-67
2022/11/26 02:56:02;;;;;;;3.28;2.80;;;8.10;99.90;;;;;;5031017;28;20185;-67
2022/11/26 02:58:29;;;;;;;5.15;3.08;;;7.90;99.90;;;;;;5029732;28;20209;-67
2022/11/26 03:00:57;;;;;;;6.25;4.00;;;8.30;99.90;;;;;;5030413;28;20561;-67
2022/11/26 03:03:31;;;;;;;5.40;3.03;;;7.80;99.90;;;;;;5027376;28;20712;-67
2022/11/26 03:06:04;;;;;;;6.38;2.80;;;8.20;99.90;;;;;;5035770;28;20214;-67
2022/11/26 03:08:31;;;;;;;3.55;2.58;;;8.00;99.90;;;;;;5028753;28;20266;-67
2022/11/26 03:10:57;;;;;;;5.22;3.25;;;8.20;99.90;;;;;;5032529;28;20182;-67
2022/11/26 03:13:23;;;;;;;4.30;3.30;;;8.10;99.90;;;;;;5032228;28;20582;-66
2022/11/26 03:15:49;;;;;;;6.17;3.00;;;7.90;99.90;;;;;;5031311;28;20620;-67
2022/11/26 03:18:14;;;;;;;7.23;3.10;;;7.90;99.90;;;;;;5030329;28;20190;-67
2022/11/26 03:20:40;;;;;;;3.40;3.10;;;8.00;99.90;;;;;;5048300;28;20818;-67
2022/11/26 03:23:06;;;;;;;4.40;3.27;;;8.10;99.90;;;;;;5030947;28;20232;-66
2022/11/26 03:25:32;;;;;;;5.37;2.77;;;8.30;99.90;;;;;;5035443;28;20447;-66
2022/11/26 03:27:58;;;;;;;3.50;3.17;;;8.20;99.90;;;;;;5047836;28;20411;-67
2022/11/26 03:30:24;;;;;;;5.50;3.20;;;8.40;99.90;;;;;;5024754;28;20659;-66
2022/11/26 03:32:50;;;;;;;4.45;2.95;;;8.00;99.90;;;;;;5032039;28;20186;-67
2022/11/26 03:35:16;;;;;;;6.38;3.40;;;8.00;99.90;;;;;;5054683;28;20186;-65
2022/11/26 03:37:42;;;;;;;6.72;3.83;;;8.00;99.90;;;;;;5032342;28;20186;-66
2022/11/26 03:40:08;;;;;;;4.50;3.20;;;8.00;99.90;;;;;;5035643;28;20221;-67
2022/11/26 03:42:35;;;;;;;4.85;2.90;;;8.20;99.90;;;;;;5028829;28;20270;-67
2022/11/26 03:45:01;;;;;;;5.57;3.30;;;8.20;99.90;;;;;;5038688;28;20209;-66
2022/11/26 03:47:26;;;;;;;5.13;3.80;;;8.00;99.90;;;;;;5029426;28;20179;-66
2022/11/26 03:49:52;;;;;;;7.10;3.87;;;7.90;99.90;;;;;;5031970;28;20675;-66
2022/11/26 03:52:18;;;;;;;5.83;3.53;;;8.20;99.90;;;;;;5029051;28;20274;-66
2022/11/26 03:54:44;;;;;;;6.53;3.25;;;8.20;99.90;;;;;;5032059;28;20710;-66
2022/11/26 03:57:10;;;;;;;3.50;2.67;;;8.00;99.90;;;;;;5025173;28;20285;-66
2022/11/26 03:59:36;;;;;;;7.68;4.10;;;8.00;99.90;;;;;;5029886;28;20419;-66
2022/11/26 04:02:03;;;;;;;6.53;3.13;;;8.30;99.90;;;;;;5040411;28;20676;-67
2022/11/26 04:04:29;;;;;;;6.35;2.80;;;8.10;99.90;;;;;;5030709;28;20201;-68
2022/11/26 04:06:55;;;;;;;4.55;3.30;;;8.00;99.90;;;;;;5030022;28;20178;-68
2022/11/26 04:09:21;;;;;;;4.60;3.40;;;7.60;99.90;;;;;;5031503;28;20245;-67
2022/11/26 04:11:47;;;;;;;6.07;3.43;;;7.50;99.90;;;;;;5029364;28;20453;-67
2022/11/26 04:14:12;;;;;;;5.63;4.30;;;7.80;99.90;;;;;;5022391;28;20532;-65
2022/11/26 04:16:38;;;;;;;7.43;3.90;;;7.70;99.90;;;;;;5024125;28;20214;-66
2022/11/26 04:19:04;;;;;;;3.40;3.03;;;7.50;99.90;;;;;;5031432;28;20572;-66
2022/11/26 04:21:29;;;;;;;5.10;3.27;;;7.60;99.90;;;;;;5033962;28;20690;-66
2022/11/26 04:23:55;;;;;;;4.60;3.23;;;7.60;99.90;;;;;;5024032;28;20202;-67
2022/11/26 04:26:21;;;;;;;4.73;3.20;;;7.70;99.90;;;;;;5036428;28;20189;-67
2022/11/26 04:28:46;;;;;;;4.27;3.63;;;7.60;99.90;;;;;;5031101;28;20534;-66
2022/11/26 04:31:12;;;;;;;4.93;3.43;;;7.50;99.90;;;;;;5029743;28;20281;-66
2022/11/26 04:33:38;;;;;;;6.10;3.97;;;7.70;99.90;;;;;;5034514;28;20217;-67
2022/11/26 04:36:04;;;;;;;3.90;3.37;;;7.80;99.90;;;;;;5022745;28;20186;-67
2022/11/26 04:38:30;;;;;;;6.30;3.70;;;7.50;99.90;;;;;;5029420;28;20231;-67
2022/11/26 04:40:55;;;;;;;4.57;3.25;;;7.60;99.90;;;;;;5020191;28;20408;-67
2022/11/26 04:43:21;;;;;;;5.20;3.47;;;7.30;99.90;;;;;;5030301;28;20249;-67
2022/11/26 04:45:47;;;;;;;6.40;3.67;;;7.30;99.90;;;;;;5027534;28;20190;-67
2022/11/26 04:48:13;;;;;;;6.60;4.13;;;7.30;99.90;;;;;;5025902;28;20620;-67
2022/11/26 04:50:38;;;;;;;5.33;3.97;;;7.60;99.90;;;;;;5029250;28;20444;-67
2022/11/26 04:53:04;;;;;;;6.40;3.20;;;7.60;99.90;;;;;;5023623;28;20206;-67
2022/11/26 04:55:30;;;;;;;6.90;3.80;;;7.50;99.90;;;;;;5025313;28;20561;-67
2022/11/26 04:57:55;;;;;;;6.30;3.87;;;7.20;99.90;;;;;;5024898;28;20501;-67
2022/11/26 05:00:21;;;;;;;6.27;4.40;;;7.20;99.90;;;;;;5032307;28;20675;-67
2022/11/26 05:02:47;;;;;;;6.45;3.90;;;7.20;99.90;;;;;;5024539;28;20190;-67
2022/11/26 05:05:12;;;;;;;6.13;4.40;;;7.20;99.90;;;;;;5029917;28;20190;-67
2022/11/26 05:07:38;;;;;;;7.03;3.50;;;7.10;99.90;;;;;;5030938;28;20260;-67
2022/11/26 05:10:06;;;;;;;5.77;3.70;;;7.20;99.90;;;;;;5021544;28;20446;-67
2022/11/26 05:12:31;;;;;;;3.88;3.47;;;7.10;99.90;;;;;;5026547;28;20196;-67
2022/11/26 05:14:57;;;;;;;7.67;3.80;;;7.40;99.90;;;;;;5028904;28;20202;-66
2022/11/26 05:17:23;;;;;;;3.80;3.20;;;7.00;99.90;;;;;;5022413;28;20278;-67
2022/11/26 05:19:48;;;;;;;11.23;4.73;;;7.00;99.90;;;;;;5028033;28;20550;-67
2022/11/26 05:22:14;;;;;;;13.10;4.17;;;7.10;99.90;;;;;;5027878;28;20671;-67
2022/11/26 05:24:40;;;;;;;10.00;3.80;;;6.70;99.90;;;;;;5030792;28;20213;-67
2022/11/26 05:27:05;;;;;;;6.07;4.10;;;6.60;99.90;;;;;;5014413;28;20179;-68
2022/11/26 05:29:32;;;;;;;5.43;3.63;;;6.70;99.90;;;;;;5027184;28;20278;-68
2022/11/26 05:31:57;;;;;;;6.13;3.95;;;6.60;99.90;;;;;;5026407;28;20185;-68
2022/11/26 05:34:23;;;;;;;6.00;3.97;;;6.60;99.90;;;;;;5030073;28;20209;-67
2022/11/26 05:36:49;;;;;;;9.33;4.03;;;6.40;99.90;;;;;;5027821;28;20200;-67
2022/11/26 05:39:15;;;;;;;4.03;3.33;;;6.80;99.90;;;;;;5029735;28;20292;-68
2022/11/26 05:41:41;;;;;;;6.30;4.25;;;6.40;99.90;;;;;;5029671;28;20265;-68
2022/11/26 05:44:06;;;;;;;6.40;3.67;;;6.50;99.90;;;;;;5025956;28;20277;-68
2022/11/26 05:46:32;;;;;;;7.83;3.97;;;6.60;99.90;;;;;;5027186;28;20550;-67
2022/11/26 05:48:58;;;;;;;6.63;4.20;;;6.20;99.90;;;;;;5025750;28;20186;-67
2022/11/26 05:51:23;;;;;;;5.40;3.70;;;6.20;99.90;;;;;;5023026;28;20953;-67
2022/11/26 05:53:49;;;;;;;5.70;4.20;;;6.20;99.90;;;;;;5029905;28;20205;-67
2022/11/26 05:56:15;;;;;;;6.20;4.70;;;6.10;99.90;;;;;;5044413;28;20200;-67
2022/11/26 05:58:43;;;;;;;10.77;7.60;;;6.00;99.90;;;;;;5024769;28;20240;-67
2022/11/26 06:01:09;;;;;;;6.72;4.45;;;6.20;99.90;;;;;;5028435;28;20696;-67
2022/11/26 06:03:36;;;;;;;9.43;5.07;;;6.00;99.90;;;;;;5019644;28;20234;-68
2022/11/26 06:06:02;;;;;;;5.38;4.15;;;6.00;99.90;;;;;;5021830;28;20982;-67
2022/11/26 06:08:28;;;;;;;5.60;4.53;;;5.80;99.90;;;;;;5032585;28;20193;-68
2022/11/26 06:10:53;;;;;;;5.30;4.00;;;5.90;99.90;;;;;;5024765;28;20195;-68
2022/11/26 06:13:19;;;;;;;8.67;3.83;;;5.70;99.90;;;;;;5032310;28;20267;-67
2022/11/26 06:15:45;;;;;;;8.27;4.67;;;5.80;99.90;;;;;;5024708;28;20654;-68
2022/11/26 06:18:10;;;;;;;6.63;4.70;;;5.80;99.90;;;;;;5029914;28;20181;-67
2022/11/26 06:20:36;;;;;;;6.30;4.63;;;6.10;99.90;;;;;;5035107;28;20201;-67
2022/11/26 06:23:02;;;;;;;7.28;4.90;;;5.80;99.90;;;;;;5035028;28;20202;-67
2022/11/26 06:25:28;;;;;;;6.10;4.33;;;6.00;99.90;;;;;;5034949;28;20205;-67
2022/11/26 06:27:55;;;;;;;9.00;4.73;;;5.60;99.90;;;;;;5027655;28;20201;-67
2022/11/26 06:30:21;;;;;;;7.00;5.10;;;5.80;99.90;;;;;;5034457;28;20208;-66
2022/11/26 06:32:47;;;;;;;5.03;4.53;;;5.70;99.90;;;;;;5032434;28;20192;-66
2022/11/26 06:35:13;;;;;;;9.02;5.55;;;5.70;99.90;;;;;;5024953;28;21057;-66
2022/11/26 06:37:39;;;;;;;8.03;6.30;;;5.50;99.90;;;;;;5029578;28;20182;-68
2022/11/26 06:40:05;;;;;;;8.05;5.45;;;5.80;99.90;;;;;;5032673;28;20686;-67
2022/11/26 06:42:30;;;;;;;6.03;5.10;;;5.50;99.90;;;;;;5032001;28;20186;-67
2022/11/26 06:44:56;;;;;;;8.10;5.27;;;5.50;99.90;;;;;;5025478;28;20718;-66
2022/11/26 06:47:22;;;;;;;5.33;4.83;;;5.70;99.90;;;;;;5024449;28;20175;-65
2022/11/26 06:49:48;;;;;;;9.37;5.03;;;5.50;99.90;;;;;;5031590;28;20805;-67
2022/11/26 06:52:13;;;;;;;8.40;5.60;;;5.70;99.90;;;;;;5031624;28;20436;-67
2022/11/26 06:54:39;;;;;;;7.53;4.67;;;5.60;99.90;;;;;;5026057;28;20340;-67
2022/11/26 06:57:05;;;;;;;7.23;5.40;;;5.50;99.90;;;;;;5024764;28;20603;-67
2022/11/26 06:59:31;;;;;;;7.10;4.60;;;5.30;99.90;;;;;;5023945;28;20202;-66
2022/11/26 07:01:56;;;;;;;8.23;5.20;;;5.60;99.90;;;;;;5021019;28;20192;-67
2022/11/26 07:04:22;;;;;;;5.70;5.10;;;5.30;99.90;;;;;;5024891;28;20513;-68
2022/11/26 07:06:47;;;;;;;9.47;5.00;;;5.40;99.90;;;;;;5022336;28;20175;-68
2022/11/26 07:09:13;;;;;;;7.70;5.33;;;5.50;99.90;;;;;;5028289;28;20239;-65
2022/11/26 07:11:40;;;;;;;13.10;5.23;;;5.50;99.90;;;;;;5033026;28;20232;-67
2022/11/26 07:14:06;;;;;;;7.63;5.00;;;5.10;99.90;;;;;;5032299;28;20258;-64
2022/11/26 07:16:32;;;;;;;10.18;5.00;;;5.30;99.90;;;;;;5031886;28;20189;-64
2022/11/26 07:18:58;;;;;;;7.20;4.60;;;5.50;99.90;;;;;;5028819;28;20219;-65
2022/11/26 07:21:24;;;;;;;8.45;5.55;;;5.40;99.90;;;;;;5040801;28;20447;-65
2022/11/26 07:23:50;;;;;;;5.97;4.95;;;5.70;99.90;;;;;;5024585;28;20205;-65
2022/11/26 07:26:18;;;;;;;7.90;5.40;;;5.50;99.90;;;;;;5024545;28;20186;-65
2022/11/26 07:28:46;;;;;;;10.48;6.07;;;5.60;99.90;;;;;;5027202;28;20476;-67
2022/11/26 07:31:13;;;;;;;7.40;5.20;;;5.80;99.90;;;;;;5024977;28;20248;-67
2022/11/26 07:33:39;;;;;;;8.73;6.40;;;5.60;99.90;;;;;;5032047;28;20296;-64
2022/11/26 07:36:08;;;;;;;6.80;5.50;;;5.70;99.90;;;;;;5021794;28;20729;-66
2022/11/26 07:38:34;;;;;;;10.02;6.95;;;5.70;99.90;;;;;;5021244;28;20190;-64
2022/11/26 07:41:06;;;;;;;6.33;5.00;;;5.60;99.90;;;;;;5025015;28;20238;-70
2022/11/26 07:43:36;;;;;;;7.97;5.55;;;5.90;99.90;;;;;;5026058;28;20483;-62
2022/11/26 07:46:03;;;;;;;13.32;5.00;;;6.10;99.90;;;;;;5023916;28;20567;-66
2022/11/26 07:48:31;;;;;;;7.20;5.05;;;6.00;99.90;;;;;;5032908;28;20190;-67
2022/11/26 07:50:57;;;;;;;6.78;5.68;;;6.00;99.90;;;;;;5026755;28;20268;-67
2022/11/26 07:53:23;;;;;;;7.80;5.22;;;6.20;99.90;;;;;;5020114;28;20586;-67
2022/11/26 07:55:48;;;;;;;7.83;5.27;;;6.10;99.90;;;;;;5026980;28;20186;-67
2022/11/26 07:58:14;;;;;;;6.00;5.10;;;6.20;99.90;;;;;;5038430;28;20187;-68
2022/11/26 08:00:40;;;;;;;6.00;5.40;;;6.20;99.90;;;;;;5027924;28;20272;-66
2022/11/26 08:03:06;;;;;;;9.13;5.67;;;6.40;99.90;;;;;;5025449;28;21039;-68
2022/11/26 08:05:31;;;;;;;6.40;4.80;;;6.90;99.90;;;;;;5025645;28;20229;-68
2022/11/26 08:07:57;;;;;;;6.47;4.83;;;6.70;99.90;;;;;;5023347;28;20606;-64
2022/11/26 08:10:22;;;;;;;5.83;5.33;;;6.80;99.90;;;;;;5024791;28;20271;-64
2022/11/26 08:12:48;;;;;;;9.33;5.87;;;6.60;99.90;;;;;;5026932;28;20208;-64
2022/11/26 08:15:14;;;;;;;6.73;5.30;;;6.70;99.90;;;;;;5031368;28;20717;-66
2022/11/26 08:17:40;;;;;;;5.80;4.90;;;6.70;99.90;;;;;;5021141;28;20476;-67
2022/11/26 08:20:06;;;;;;;9.27;6.27;;;6.70;99.90;;;;;;5027087;28;20671;-67
2022/11/26 08:22:32;;;;;;;7.95;6.50;;;6.90;99.90;;;;;;5021584;28;20194;-65
2022/11/26 08:24:58;;;;;;;7.18;6.47;;;6.90;99.90;;;;;;5026008;28;20203;-64
2022/11/26 08:27:24;;;;;;;7.70;6.00;;;6.80;99.90;;;;;;5022183;28;20205;-65
2022/11/26 08:29:49;;;;;;;8.20;5.53;;;6.70;99.90;;;;;;5023522;28;20609;-65
2022/11/26 08:32:15;;;;;;;6.90;6.20;;;7.20;99.90;;;;;;5031370;28;20445;-66
2022/11/26 08:34:41;;;;;;;7.93;6.47;;;7.10;99.90;;;;;;5025700;28;20210;-66
2022/11/26 08:37:06;;;;;;;6.50;5.90;;;7.10;99.90;;;;;;5023475;28;20277;-65
2022/11/26 08:39:32;;;;;;;5.93;5.33;;;7.10;99.90;;;;;;5024030;28;20240;-66
2022/11/26 08:41:58;;;;;;;11.80;6.47;;;7.10;99.90;;;;;;5034141;28;20660;-67
2022/11/26 08:44:23;;;;;;;8.87;6.73;;;7.50;99.90;;;;;;5022619;28;20304;-66
2022/11/26 08:46:49;;;;;;;7.43;6.73;;;7.20;99.90;;;;;;5023838;28;20182;-65
2022/11/26 08:49:15;;;;;;;9.67;6.97;;;7.40;99.90;;;;;;5025214;28;20255;-65
2022/11/26 08:51:42;;;;;;;7.93;6.18;;;7.30;99.90;;;;;;5019655;28;20183;-66
2022/11/26 08:54:08;;;;;;;8.32;6.80;;;7.20;99.90;;;;;;5027067;28;20309;-65
2022/11/26 08:56:34;;;;;;;7.45;6.20;;;7.30;99.90;;;;;;5026037;28;20221;-66
2022/11/26 08:59:00;;;;;;;8.70;7.07;;;7.40;99.90;;;;;;5023501;28;20233;-65
2022/11/26 09:01:28;;;;;;;6.47;5.80;;;7.00;99.90;;;;;;5027625;28;20446;-65
2022/11/26 09:03:57;;;;;;;7.20;6.60;;;7.30;99.90;;;;;;5028282;28;20294;-66
2022/11/26 09:06:25;;;;;;;7.38;6.32;;;7.30;99.90;;;;;;5027119;28;20197;-65
2022/11/26 09:11:39;;;;;;;8.10;6.18;;;7.30;99.90;;;;;;5023844;28;20457;-65
2022/11/26 09:14:05;;;;;;;11.23;6.53;;;7.30;99.90;;;;;;5026226;28;20220;-65
2022/11/26 09:16:31;;;;;;;7.23;6.60;;;7.30;99.90;;;;;;5029362;28;20559;-67
2022/11/26 09:19:00;;;;;;;10.02;7.03;;;7.30;99.90;;;;;;5025949;28;20206;-66
2022/11/26 09:21:26;;;;;;;8.73;6.22;;;7.70;99.90;;;;;;5023052;28;20190;-66
2022/11/26 09:23:52;;;;;;;12.40;7.25;;;7.80;99.90;;;;;;5028311;28;20714;-65
2022/11/26 09:26:20;;;;;;;10.60;7.15;;;8.10;99.90;;;;;;5023648;28;20206;-65
2022/11/26 09:28:47;;;;;;;8.07;7.38;;;8.20;99.90;;;;;;5026102;28;20194;-66
2022/11/26 09:31:13;;;;;;;10.20;7.20;;;8.50;99.90;;;;;;5036791;28;20190;-65
2022/11/26 09:33:38;;;;;;;9.23;7.10;;;8.50;99.90;;;;;;5029201;28;20705;-65
2022/11/26 09:36:06;;;;;;;7.43;6.60;;;8.40;99.90;;;;;;5024099;28;20528;-65
2022/11/26 09:38:32;;;;;;;11.10;7.18;;;8.50;99.90;;;;;;5028758;28;20248;-65
2022/11/26 09:41:12;;;;;;;8.98;6.82;;;9.00;99.90;;;;;;5029823;28;20186;-65
2022/11/26 09:44:17;;;;;;;6.60;5.90;;;9.10;99.90;;;;;;5029044;28;20876;-65
2022/11/26 09:46:58;;;;;;;7.88;6.10;;;9.30;99.90;;;;;;5014442;28;20202;-65
2022/11/26 09:49:26;;;;;;;7.75;6.60;;;9.50;99.90;;;;;;5021989;28;20485;-65
2022/11/26 09:51:56;;;;;;;7.03;5.40;;;9.50;99.90;;;;;;5042898;28;20193;-65
2022/11/26 09:54:23;;;;;;;7.60;5.13;;;9.80;99.90;;;;;;5029485;28;20293;-65
2022/11/26 09:56:54;;;;;;;7.78;5.65;;;9.80;99.90;;;;;;5044298;28;20572;-65
2022/11/26 09:59:21;;;;;;;9.10;6.00;;;10.00;99.90;;;;;;5028395;28;20297;-65
2022/11/26 10:01:47;;;;;;;7.53;6.20;;;10.00;99.90;;;;;;5028997;28;20182;-65
2022/11/26 10:04:22;;;;;;;9.70;5.40;;;9.80;99.90;;;;;;5029121;28;20297;-65
2022/11/26 10:06:58;;;;;;;8.20;6.18;;;9.90;99.90;;;;;;5027502;28;20541;-65
2022/11/26 10:09:29;;;;;;;8.05;7.05;;;9.70;99.90;;;;;;5029099;28;20186;-65
2022/11/26 10:12:02;;;;;;;8.02;6.50;;;9.70;99.90;;;;;;5029372;28;20213;-65
2022/11/26 10:15:08;;;;;;;7.72;6.90;;;9.40;99.90;;;;;;5042275;28;20215;-65
2022/11/26 10:17:54;;;;;;;14.82;7.88;;;9.30;99.90;;;;;;5021710;28;20193;-65
2022/11/26 10:20:25;;;;;;;9.70;7.20;;;9.50;99.90;;;;;;5021098;28;20218;-66
2022/11/26 10:23:01;;;;;;;8.98;6.70;;;9.70;99.90;;;;;;5027425;28;20218;-66
2022/11/26 10:25:32;;;;;;;9.27;6.72;;;10.00;99.90;;;;;;5023027;28;20574;-67
2022/11/26 10:27:59;;;;;;;7.60;6.30;;;11.00;99.90;;;;;;5031504;28;20182;-66
2022/11/26 10:30:29;;;;;;;7.60;6.25;;;11.40;99.90;;;;;;5028903;28;20201;-67
2022/11/26 10:33:00;;;;;;;7.15;6.40;;;12.00;99.90;;;;;;5023079;28;20388;-66
2022/11/26 10:35:27;;;;;;;7.38;6.28;;;12.00;99.90;;;;;;5020153;28;20178;-67
2022/11/26 10:37:54;;;;;;;12.43;7.30;;;12.30;99.90;;;;;;5021222;28;20667;-66
2022/11/26 10:40:29;;;;;;;8.30;6.22;;;12.30;99.90;;;;;;5026253;28;20686;-66
2022/11/26 10:43:07;;;;;;;7.15;5.85;;;14.00;99.90;;;;;;5028512;28;20204;-66
2022/11/26 10:46:02;;;;;;;6.57;4.20;;;13.20;99.60;;;;;;5031629;28;20181;-67
2022/11/26 10:48:32;;;;;;;12.30;5.15;;;12.40;99.90;;;;;;5013388;28;20274;-67
2022/11/26 10:51:17;;;;;;;8.27;6.40;;;12.10;99.90;;;;;;5018031;28;20194;-67
2022/11/26 10:54:03;;;;;;;8.75;5.70;;;12.00;99.90;;;;;;5026284;28;20232;-66
2022/11/26 10:56:34;;;;;;;12.30;6.78;;;11.30;99.90;;;;;;5023000;28;20178;-65
2022/11/26 10:59:03;;;;;;;7.97;5.60;;;11.50;99.90;;;;;;5032119;28;20362;-65
2022/11/26 11:01:36;;;;;;;5.63;5.03;;;11.00;99.90;;;;;;5031335;28;20622;-64
2022/11/26 11:04:06;;;;;;;6.00;4.45;;;11.00;99.90;;;;;;5030513;28;20215;-65
2022/11/26 11:06:43;;;;;;;7.85;4.95;;;11.00;99.90;;;;;;5030131;28;20177;-66
2022/11/26 11:09:31;;;;;;;6.72;4.57;;;11.30;99.90;;;;;;5025250;28;20211;-65
2022/11/26 11:12:14;;;;;;;7.32;4.80;;;11.00;99.90;;;;;;5030720;28;20192;-65
2022/11/26 11:14:42;;;;;;;7.55;4.25;;;11.00;99.90;;;;;;5029685;28;20290;-65
2022/11/26 11:17:18;;;;;;;7.07;4.25;;;11.20;99.90;;;;;;5030249;28;20196;-65
2022/11/26 11:19:44;;;;;;;9.45;4.70;;;11.00;99.90;;;;;;5038920;28;20277;-66
2022/11/26 11:22:20;;;;;;;9.27;5.47;;;11.10;99.90;;;;;;5031217;28;20260;-66
2022/11/26 11:24:47;;;;;;;8.75;5.95;;;10.90;99.90;;;;;;5029002;28;20578;-65
2022/11/26 11:27:31;;;;;;;6.75;3.90;;;11.70;99.90;;;;;;5046282;28;20190;-67
2022/11/26 11:30:00;;;;;;;8.85;4.03;;;11.90;99.90;;;;;;5024239;28;20952;-66
2022/11/26 11:32:34;;;;;;;4.95;3.28;;;11.90;99.90;;;;;;5029345;28;20714;-66
2022/11/26 11:35:21;;;;;;;4.50;2.85;;;12.20;99.90;;;;;;5023525;28;20257;-66
2022/11/26 11:37:57;;;;;;;5.57;2.90;;;12.00;99.90;;;;;;5028574;28;21616;-66
2022/11/26 11:40:26;;;;;;;5.00;3.40;;;12.00;99.90;;;;;;5033666;28;20204;-66
2022/11/26 11:43:04;;;;;;;5.70;3.30;;;12.00;99.90;;;;;;5035547;28;20691;-65
2022/11/26 11:45:39;;;;;;;5.55;3.67;;;12.00;99.90;;;;;;5031275;28;20189;-65
2022/11/26 11:48:29;;;;;;;8.65;3.88;;;12.10;99.90;;;;;;5028041;28;20240;-66
2022/11/26 11:51:01;;;;;;;8.15;4.35;;;12.00;99.90;;;;;;5023391;28;20185;-67
2022/11/26 11:53:52;;;;;;;8.85;4.38;;;12.40;99.90;;;;;;5028269;28;20725;-65
2022/11/26 11:56:25;;;;;;;7.50;5.25;;;12.10;99.90;;;;;;5025456;28;20198;-65
2022/11/26 11:59:35;;;;;;;10.32;6.05;;;12.20;99.90;;;;;;5030219;28;20206;-65
2022/11/26 12:02:24;;;;;;;6.18;4.30;;;12.10;99.90;;;;;;5022926;28;20269;-67
2022/11/26 12:05:16;;;;;;;6.88;4.30;;;12.20;99.90;;;;;;5024993;28;20198;-67
2022/11/26 12:07:52;;;;;;;8.73;5.50;;;12.10;99.90;;;;;;4995559;28;20914;-65
2022/11/26 12:10:28;;;;;;;8.73;4.68;;;12.10;99.90;;;;;;5027406;28;20444;-65
2022/11/26 12:12:57;;;;;;;6.38;4.82;;;12.00;99.90;;;;;;5026751;28;20240;-65
2022/11/26 12:15:35;;;;;;;10.27;4.63;;;12.10;99.90;;;;;;5022236;28;20197;-66
2022/11/26 12:18:34;;;;;;;6.90;4.47;;;12.20;99.90;;;;;;5020350;28;20293;-66
2022/11/26 12:21:11;;;;;;;9.38;5.38;;;12.30;99.90;;;;;;5027922;28;20190;-67
2022/11/26 12:23:54;;;;;;;5.63;4.38;;;12.20;99.90;;;;;;5026082;28;20201;-67
2022/11/26 12:26:33;;;;;;;6.95;5.35;;;12.20;99.90;;;;;;5041084;28;20183;-65
2022/11/26 12:29:10;;;;;;;7.75;4.93;;;12.20;99.90;;;;;;5026399;28;20191;-66
2022/11/26 12:31:55;;;;;;;9.73;4.57;;;12.00;99.90;;;;;;5025568;28;20689;-65
2022/11/26 12:34:50;;;;;;;7.97;5.32;;;12.00;99.90;;;;;;5041374;28;20460;-66
2022/11/26 12:37:22;;;;;;;10.18;5.57;;;11.80;99.90;;;;;;5026445;28;20197;-65
2022/11/26 12:40:08;;;;;;;10.80;6.95;;;11.90;99.90;;;;;;5022107;28;20284;-65
2022/11/26 12:43:18;;;;;;;8.55;5.65;;;12.00;99.90;;;;;;5026971;28;20273;-66
2022/11/26 12:46:25;;;;;;;6.80;4.85;;;11.70;99.90;;;;;;5029197;28;20178;-67
2022/11/26 12:48:59;;;;;;;6.85;4.50;;;11.50;99.90;;;;;;5028815;28;20193;-67
2022/11/26 12:51:40;;;;;;;7.35;5.40;;;11.60;99.90;;;;;;5025999;28;20193;-67
2022/11/26 12:54:20;;;;;;;7.20;4.80;;;11.70;99.90;;;;;;5026593;28;20702;-65
2022/11/26 12:56:56;;;;;;;8.52;5.43;;;11.60;99.90;;;;;;5022337;28;20192;-67
2022/11/26 12:59:28;;;;;;;9.98;5.47;;;11.20;99.90;;;;;;5029779;28;20620;-66
2022/11/26 13:01:55;;;;;;;7.00;5.03;;;11.60;99.90;;;;;;5028563;28;20194;-66
2022/11/26 13:04:22;;;;;;;10.18;4.85;;;11.50;99.90;;;;;;5029209;28;20205;-67
2022/11/26 13:07:07;;;;;;;8.27;5.97;;;11.70;99.90;;;;;;5028497;28;20181;-67
2022/11/26 13:10:01;;;;;;;6.30;5.70;;;11.50;99.90;;;;;;5029252;28;20189;-66
2022/11/26 13:13:07;;;;;;;12.30;4.70;;;11.50;99.90;;;;;;5028172;28;20208;-67